createdAt,value
2024-03-01T00:00:25.811Z,1.80
2024-03-01T00:02:53.050Z,1.25
2024-03-01T00:05:20.331Z,1.63
2024-03-01T00:07:47.566Z,1.40
2024-03-01T00:10:14.839Z,2.53
2024-03-01T00:12:42.091Z,1.60
2024-03-01T00:15:09.682Z,1.98
2024-03-01T00:17:36.994Z,1.90
2024-03-01T00:20:04.715Z,1.73
2024-03-01T00:22:32.089Z,1.42
2024-03-01T00:24:59.377Z,1.77
2024-03-01T00:27:26.547Z,1.77
2024-03-01T00:29:53.760Z,1.70
2024-03-01T00:32:20.927Z,2.58
2024-03-01T00:34:48.052Z,3.33
2024-03-01T00:37:15.481Z,2.78
2024-03-01T00:39:42.810Z,2.53
2024-03-01T00:42:10.224Z,3.40
2024-03-01T00:44:37.728Z,3.42
2024-03-01T00:47:05.379Z,3.55
2024-03-01T00:49:32.848Z,4.28
2024-03-01T00:52:03.439Z,2.97
2024-03-01T00:54:30.910Z,3.15
2024-03-01T00:56:58.129Z,3.72
2024-03-01T00:59:25.356Z,3.65
2024-03-01T01:01:52.865Z,3.47
2024-03-01T01:04:20.998Z,4.10
2024-03-01T01:06:48.740Z,3.33
2024-03-01T01:09:16.160Z,3.00
2024-03-01T01:11:43.330Z,2.83
2024-03-01T01:14:10.713Z,3.20
2024-03-01T01:16:37.974Z,3.42
2024-03-01T01:19:05.610Z,2.88
2024-03-01T01:21:33.887Z,3.58
2024-03-01T01:24:01.499Z,3.75
2024-03-01T01:26:28.789Z,2.38
2024-03-01T01:28:57.370Z,3.40
2024-03-01T01:31:24.983Z,2.40
2024-03-01T01:33:53.125Z,2.60
2024-03-01T01:36:20.470Z,2.38
2024-03-01T01:38:55.962Z,2.72
2024-03-01T01:41:33.727Z,1.98
2024-03-01T01:44:00.935Z,2.80
2024-03-01T01:46:28.638Z,2.40
2024-03-01T01:48:56.015Z,2.35
2024-03-01T01:51:24.210Z,2.22
2024-03-01T01:53:51.941Z,1.92
2024-03-01T01:56:19.808Z,2.50
2024-03-01T01:58:47.348Z,1.95
2024-03-01T02:01:16.657Z,1.75
2024-03-01T02:03:44.180Z,1.77
2024-03-01T02:06:11.552Z,1.95
2024-03-01T02:08:39.782Z,2.08
2024-03-01T02:11:07.553Z,1.58
2024-03-01T02:13:34.985Z,2.05
2024-03-01T02:16:02.687Z,1.42
2024-03-01T02:18:30.201Z,1.67
2024-03-01T02:21:01.366Z,1.60
2024-03-01T02:23:29.077Z,2.38
2024-03-01T02:25:56.542Z,1.90
2024-03-01T02:28:24.012Z,1.52
2024-03-01T02:30:53.055Z,1.23
2024-03-01T02:33:21.453Z,1.30
2024-03-01T02:35:48.939Z,1.50
2024-03-01T02:38:16.818Z,1.70
2024-03-01T02:40:44.995Z,1.73
2024-03-01T02:43:12.390Z,2.05
2024-03-01T02:45:39.574Z,1.23
2024-03-01T02:48:07.100Z,1.45
2024-03-01T02:50:34.440Z,1.45
2024-03-01T02:53:01.684Z,1.02
2024-03-01T02:55:28.918Z,1.38
2024-03-01T02:57:57.840Z,2.08
2024-03-01T03:00:25.723Z,1.98
2024-03-01T03:02:53.356Z,1.25
2024-03-01T03:05:21.070Z,1.65
2024-03-01T03:07:48.486Z,1.27
2024-03-01T03:10:16.296Z,1.20
2024-03-01T03:12:45.619Z,1.55
2024-03-01T03:15:14.873Z,1.52
2024-03-01T03:17:42.200Z,1.65
2024-03-01T03:20:12.277Z,1.60
2024-03-01T03:22:46.459Z,2.10
2024-03-01T03:25:15.643Z,2.10
2024-03-01T03:27:44.636Z,1.55
2024-03-01T03:30:12.568Z,1.50
2024-03-01T03:32:39.877Z,1.63
2024-03-01T03:35:07.511Z,1.77
2024-03-01T03:37:34.915Z,1.60
2024-03-01T03:40:14.304Z,1.17
2024-03-01T03:42:43.048Z,1.10
2024-03-01T03:45:11.627Z,1.33
2024-03-01T03:47:39.306Z,1.42
2024-03-01T03:50:09.494Z,1.05
2024-03-01T03:52:37.545Z,1.30
2024-03-01T03:55:06.300Z,1.05
2024-03-01T03:57:34.452Z,1.00
2024-03-01T04:00:03.987Z,1.05
2024-03-01T04:02:39.330Z,1.23
2024-03-01T04:05:07.775Z,0.95
2024-03-01T04:07:35.706Z,1.10
2024-03-01T04:10:06.536Z,1.40
2024-03-01T04:12:34.114Z,1.45
2024-03-01T04:15:04.869Z,0.90
2024-03-01T04:17:33.044Z,1.10
2024-03-01T04:20:00.329Z,1.10
2024-03-01T04:22:27.544Z,1.17
2024-03-01T04:24:55.705Z,0.80
2024-03-01T04:27:23.059Z,1.30
2024-03-01T04:29:50.503Z,1.00
2024-03-01T04:32:19.114Z,0.82
2024-03-01T04:34:46.683Z,1.40
2024-03-01T04:37:16.892Z,1.00
2024-03-01T04:39:44.146Z,1.08
2024-03-01T04:42:11.391Z,0.82
2024-03-01T04:44:42.506Z,0.80
2024-03-01T04:47:09.742Z,2.00
2024-03-01T04:49:37.185Z,0.95
2024-03-01T04:52:04.770Z,0.95
2024-03-01T04:54:32.121Z,0.70
2024-03-01T04:57:01.078Z,0.93
2024-03-01T04:59:28.214Z,1.23
2024-03-01T05:01:55.360Z,0.70
2024-03-01T05:04:22.562Z,0.90
2024-03-01T05:06:49.680Z,0.68
2024-03-01T05:09:17.258Z,1.05
2024-03-01T05:11:45.807Z,1.08
2024-03-01T05:14:12.979Z,1.13
2024-03-01T05:16:40.308Z,2.00
2024-03-01T05:19:07.636Z,1.10
2024-03-01T05:21:34.788Z,1.02
2024-03-01T05:24:02.058Z,0.80
2024-03-01T05:26:29.255Z,1.50
2024-03-01T05:28:56.375Z,1.65
2024-03-01T05:31:28.221Z,1.42
2024-03-01T05:33:59.140Z,1.13
2024-03-01T05:36:26.732Z,1.10
2024-03-01T05:38:53.963Z,1.10
2024-03-01T05:41:21.202Z,1.40
2024-03-01T05:43:48.329Z,1.10
2024-03-01T05:46:16.244Z,1.25
2024-03-01T05:48:45.090Z,1.63
2024-03-01T05:51:12.938Z,1.80
2024-03-01T05:53:43.645Z,2.08
2024-03-01T05:56:19.277Z,1.70
2024-03-01T05:58:50.111Z,1.58
2024-03-01T06:01:19.665Z,1.35
2024-03-01T06:03:47.361Z,1.20
2024-03-01T06:06:16.668Z,1.67
2024-03-01T06:08:44.073Z,1.77
2024-03-01T06:11:11.676Z,1.90
2024-03-01T06:13:40.075Z,1.33
2024-03-01T06:16:10.371Z,1.65
2024-03-01T06:18:37.517Z,1.90
2024-03-01T06:21:04.854Z,1.60
2024-03-01T06:23:32.087Z,1.67
2024-03-01T06:25:59.357Z,1.98
2024-03-01T06:28:26.603Z,2.10
2024-03-01T06:30:54.568Z,1.73
2024-03-01T06:33:21.912Z,2.28
2024-03-01T06:35:49.179Z,1.98
2024-03-01T06:38:16.379Z,2.75
2024-03-01T06:40:53.380Z,2.00
2024-03-01T06:43:20.822Z,2.28
2024-03-01T06:45:48.096Z,2.00
2024-03-01T06:48:20.199Z,2.33
2024-03-01T06:50:49.531Z,1.92
2024-03-01T06:53:17.615Z,2.38
2024-03-01T06:55:44.797Z,2.63
2024-03-01T06:58:11.971Z,2.20
2024-03-01T07:00:39.290Z,2.47
2024-03-01T07:03:06.479Z,2.10
2024-03-01T07:05:33.665Z,2.97
2024-03-01T07:08:00.817Z,2.92
2024-03-01T07:10:28.088Z,2.25
2024-03-01T07:12:55.273Z,3.42
2024-03-01T07:15:22.436Z,1.45
2024-03-01T07:17:49.629Z,1.92
2024-03-01T07:20:16.893Z,1.77
2024-03-01T07:22:44.249Z,1.98
2024-03-01T07:25:12.052Z,1.63
2024-03-01T07:27:39.364Z,1.08
2024-03-01T07:30:07.387Z,2.58
2024-03-01T07:32:38.722Z,0.85
2024-03-01T07:35:09.899Z,0.80
2024-03-01T07:37:37.247Z,2.40
2024-03-01T07:40:06.201Z,0.85
2024-03-01T07:42:34.049Z,0.80
2024-03-01T07:45:01.459Z,1.35
2024-03-01T07:47:31.351Z,0.73
2024-03-01T07:49:59.180Z,0.50
2024-03-01T07:52:32.837Z,0.43
2024-03-01T07:55:00.391Z,0.70
2024-03-01T07:57:27.757Z,0.73
2024-03-01T07:59:55.070Z,0.45
2024-03-01T08:02:22.355Z,0.40
2024-03-01T08:04:49.672Z,0.63
2024-03-01T08:07:17.355Z,0.47
2024-03-01T08:09:46.340Z,0.40
2024-03-01T08:12:15.230Z,0.85
2024-03-01T08:14:43.372Z,0.50
2024-03-01T08:17:10.553Z,0.50
2024-03-01T08:19:48.487Z,0.50
2024-03-01T08:22:16.949Z,0.30
2024-03-01T08:24:48.796Z,0.35
2024-03-01T08:27:21.160Z,0.50
2024-03-01T08:29:48.869Z,0.57
2024-03-01T08:32:33.328Z,0.95
2024-03-01T08:35:01.198Z,0.68
2024-03-01T08:37:32.847Z,0.70
2024-03-01T08:40:01.782Z,0.75
2024-03-01T08:42:35.597Z,0.85
2024-03-01T08:45:06.360Z,1.00
2024-03-01T08:47:36.213Z,1.10
2024-03-01T08:50:15.488Z,1.20
2024-03-01T08:52:42.834Z,1.20
2024-03-01T08:55:19.481Z,3.45
2024-03-01T08:57:47.587Z,1.58
2024-03-01T09:00:40.368Z,1.60
2024-03-01T09:03:11.799Z,2.00
2024-03-01T09:05:42.319Z,1.40
2024-03-01T09:08:13.535Z,2.33
2024-03-01T09:10:43.707Z,2.30
2024-03-01T09:13:15.654Z,3.25
2024-03-01T09:15:45.476Z,1.70
2024-03-01T09:18:43.709Z,1.50
2024-03-01T09:21:39.420Z,1.30
2024-03-01T09:24:07.185Z,1.55
2024-03-01T09:26:34.410Z,0.85
2024-03-01T09:29:03.789Z,0.88
2024-03-01T09:31:33.083Z,0.55
2024-03-01T09:34:12.264Z,0.93
2024-03-01T09:36:39.720Z,0.57
2024-03-01T09:39:09.905Z,0.95
2024-03-01T09:42:17.242Z,1.40
2024-03-01T09:45:15.905Z,0.45
2024-03-01T09:48:10.836Z,1.25
2024-03-01T09:51:00.002Z,0.60
2024-03-01T09:53:56.005Z,1.25
2024-03-01T09:56:37.013Z,1.30
2024-03-01T09:59:29.686Z,0.50
2024-03-01T10:02:03.877Z,0.60
2024-03-01T10:04:54.436Z,1.02
2024-03-01T10:07:29.545Z,1.23
2024-03-01T10:10:16.535Z,1.17
2024-03-01T10:12:52.865Z,2.38
2024-03-01T10:15:38.756Z,1.05
2024-03-01T10:18:31.287Z,2.28
2024-03-01T10:24:02.655Z,0.52
2024-03-01T10:26:33.095Z,1.83
2024-03-01T10:29:51.401Z,0.68
2024-03-01T10:32:48.610Z,1.10
2024-03-01T10:35:26.827Z,1.10
2024-03-01T10:38:12.419Z,0.90
2024-03-01T10:40:51.916Z,1.17
2024-03-01T10:43:27.018Z,1.00
2024-03-01T10:46:06.225Z,0.95
2024-03-01T10:48:49.295Z,0.85
2024-03-01T10:51:18.343Z,1.38
2024-03-01T10:53:52.487Z,1.20
2024-03-01T10:56:21.563Z,0.60
2024-03-01T10:58:56.216Z,0.90
2024-03-01T11:01:37.046Z,3.63
2024-03-01T11:04:31.446Z,1.02
2024-03-01T11:07:27.411Z,1.77
2024-03-01T11:10:03.355Z,0.68
2024-03-01T11:12:40.946Z,0.45
2024-03-01T11:15:14.689Z,1.40
2024-03-01T11:17:46.667Z,0.88
2024-03-01T11:20:22.383Z,0.65
2024-03-01T11:23:12.775Z,0.32
2024-03-01T11:26:01.056Z,0.93
2024-03-01T11:28:30.344Z,0.73
2024-03-01T11:31:05.516Z,0.30
2024-03-01T11:33:37.515Z,0.80
2024-03-01T11:36:11.065Z,0.35
2024-03-01T11:38:47.072Z,0.40
2024-03-01T11:41:34.382Z,0.38
2024-03-01T11:44:35.353Z,0.47
2024-03-01T11:47:18.634Z,0.30
2024-03-01T11:50:13.458Z,0.40
2024-03-01T11:53:10.841Z,0.40
2024-03-01T11:55:51.279Z,0.30
2024-03-01T11:58:24.566Z,0.10
2024-03-01T12:00:58.161Z,0.20
2024-03-01T12:03:29.929Z,0.10
2024-03-01T12:06:26.910Z,0.30
2024-03-01T12:09:42.069Z,0.20
2024-03-01T12:12:19.563Z,0.52
2024-03-01T12:14:53.853Z,0.20
2024-03-01T12:17:30.956Z,0.47
2024-03-01T12:20:06.702Z,0.60
2024-03-01T12:22:50.197Z,0.40
2024-03-01T12:25:25.382Z,0.50
2024-03-01T12:28:15.362Z,0.17
2024-03-01T12:31:09.742Z,0.38
2024-03-01T12:34:13.556Z,0.47
2024-03-01T12:37:14.267Z,0.43
2024-03-01T12:39:46.895Z,0.40
2024-03-01T12:42:37.216Z,0.50
2024-03-01T12:45:35.535Z,0.60
2024-03-01T12:48:39.341Z,0.88
2024-03-01T12:51:15.307Z,0.73
2024-03-01T12:53:59.138Z,0.68
2024-03-01T12:56:49.112Z,0.50
2024-03-01T12:59:52.261Z,1.50
2024-03-01T13:02:42.365Z,0.60
2024-03-01T13:05:20.494Z,0.70
2024-03-01T13:07:52.385Z,0.55
2024-03-01T13:10:24.810Z,0.85
2024-03-01T13:12:58.056Z,0.93
2024-03-01T13:15:32.083Z,0.98
2024-03-01T13:17:59.463Z,0.75
2024-03-01T13:21:05.800Z,0.93
2024-03-01T13:23:53.198Z,1.10
2024-03-01T13:26:35.234Z,1.35
2024-03-01T13:29:09.264Z,1.95
2024-03-01T13:31:47.452Z,1.63
2024-03-01T13:34:18.686Z,1.40
2024-03-01T13:36:51.657Z,1.23
2024-03-01T13:39:26.939Z,0.90
2024-03-01T13:42:02.471Z,1.15
2024-03-01T13:44:40.351Z,1.92
2024-03-01T13:47:25.546Z,0.98
2024-03-01T13:50:08.786Z,0.90
2024-03-01T13:52:41.072Z,1.45
2024-03-01T13:57:45.692Z,1.00
2024-03-01T14:00:24.003Z,1.15
2024-03-01T14:02:54.125Z,0.82
2024-03-01T14:05:29.649Z,0.75
2024-03-01T14:07:59.409Z,1.05
2024-03-01T14:10:27.713Z,1.08
2024-03-01T14:12:55.584Z,1.05
2024-03-01T14:15:23.958Z,1.23
2024-03-01T14:17:54.121Z,1.35
2024-03-01T14:20:25.748Z,1.20
2024-03-01T14:22:55.669Z,0.90
2024-03-01T14:25:33.237Z,1.45
2024-03-01T14:28:01.447Z,1.30
2024-03-01T14:30:33.282Z,1.00
2024-03-01T14:33:14.782Z,0.93
2024-03-01T14:36:11.149Z,1.50
2024-03-01T14:38:57.291Z,1.73
2024-03-01T14:41:42.280Z,0.93
2024-03-01T14:44:10.087Z,1.02
2024-03-01T14:46:38.490Z,1.50
2024-03-01T14:49:33.332Z,1.08
2024-03-01T14:52:11.333Z,0.95
2024-03-01T14:54:39.249Z,1.00
2024-03-01T14:57:07.261Z,1.00
2024-03-01T14:59:38.584Z,1.00
2024-03-01T15:02:06.604Z,0.90
2024-03-01T15:04:34.617Z,1.48
2024-03-01T15:07:04.962Z,1.45
2024-03-01T15:09:45.565Z,1.52
2024-03-01T15:12:14.163Z,1.30
2024-03-01T15:14:41.660Z,1.60
2024-03-01T15:17:09.861Z,1.45
2024-03-01T15:19:41.048Z,1.40
2024-03-01T15:22:13.530Z,1.73
2024-03-01T15:24:40.911Z,1.08
2024-03-01T15:27:08.146Z,2.40
2024-03-01T15:29:35.741Z,1.52
2024-03-01T15:32:03.002Z,1.30
2024-03-01T15:34:30.337Z,1.40
2024-03-01T15:36:57.844Z,1.67
2024-03-01T15:39:29.306Z,1.13
2024-03-01T15:41:59.949Z,1.83
2024-03-01T15:44:27.175Z,1.25
2024-03-01T15:46:54.377Z,1.50
2024-03-01T15:49:21.782Z,1.25
2024-03-01T15:51:49.174Z,0.85
2024-03-01T15:54:16.966Z,1.17
2024-03-01T15:56:50.863Z,1.48
2024-03-01T15:59:19.094Z,1.17
2024-03-01T16:01:46.684Z,2.15
2024-03-01T16:04:14.456Z,1.38
2024-03-01T16:06:42.734Z,0.85
2024-03-01T16:09:10.418Z,1.08
2024-03-01T16:11:42.097Z,1.15
2024-03-01T16:14:13.400Z,0.60
2024-03-01T16:16:40.850Z,0.80
2024-03-01T16:19:08.769Z,0.88
2024-03-01T16:21:36.085Z,0.70
2024-03-01T16:24:07.150Z,1.10
2024-03-01T16:26:34.651Z,1.17
2024-03-01T16:29:02.009Z,0.70
2024-03-01T16:31:30.328Z,1.25
2024-03-01T16:34:02.548Z,1.17
2024-03-01T16:36:31.560Z,0.55
2024-03-01T16:39:07.372Z,1.85
2024-03-01T16:41:40.484Z,1.10
2024-03-01T16:44:31.449Z,1.15
2024-03-01T16:47:00.315Z,0.95
2024-03-01T16:49:30.367Z,1.08
2024-03-01T16:52:04.011Z,1.35
2024-03-01T16:54:35.307Z,2.85
2024-03-01T16:57:10.922Z,1.73
2024-03-01T16:59:39.385Z,0.82
2024-03-01T17:02:29.878Z,1.02
2024-03-01T17:04:58.877Z,0.90
2024-03-01T17:07:46.374Z,1.27
2024-03-01T17:10:28.334Z,0.88
2024-03-01T17:13:04.269Z,1.27
2024-03-01T17:15:32.131Z,0.80
2024-03-01T17:18:00.933Z,1.13
2024-03-01T17:20:30.368Z,0.90
2024-03-01T17:22:57.780Z,0.98
2024-03-01T17:25:25.770Z,0.88
2024-03-01T17:27:53.144Z,1.38
2024-03-01T17:30:20.439Z,0.88
2024-03-01T17:32:49.882Z,0.70
2024-03-01T17:35:21.377Z,1.13
2024-03-01T17:37:49.787Z,0.87
2024-03-01T17:40:17.534Z,1.33
2024-03-01T17:42:45.097Z,0.82
2024-03-01T17:45:12.341Z,1.27
2024-03-01T17:47:39.676Z,1.88
2024-03-01T17:50:08.771Z,2.05
2024-03-01T17:52:36.247Z,1.20
2024-03-01T17:55:05.290Z,0.77
2024-03-01T17:57:32.545Z,1.77
2024-03-01T17:59:59.733Z,1.00
2024-03-01T18:02:27.044Z,1.05
2024-03-01T18:04:54.407Z,1.38
2024-03-01T18:07:22.542Z,1.42
2024-03-01T18:09:50.508Z,1.67
2024-03-01T18:12:17.991Z,1.98
2024-03-01T18:14:45.243Z,1.83
2024-03-01T18:17:13.103Z,1.90
2024-03-01T18:19:42.018Z,1.48
2024-03-01T18:22:09.414Z,2.28
2024-03-01T18:24:36.602Z,1.83
2024-03-01T18:27:04.018Z,2.33
2024-03-01T18:29:33.233Z,1.88
2024-03-01T18:32:01.413Z,1.85
2024-03-01T18:34:28.648Z,1.30
2024-03-01T18:36:59.026Z,1.00
2024-03-01T18:39:26.508Z,1.10
2024-03-01T18:41:53.797Z,1.00
2024-03-01T18:44:20.937Z,1.38
2024-03-01T18:46:48.212Z,1.35
2024-03-01T18:49:15.566Z,1.10
2024-03-01T18:51:42.805Z,1.98
2024-03-01T18:54:15.120Z,1.42
2024-03-01T18:56:42.765Z,1.55
2024-03-01T18:59:10.146Z,1.60
2024-03-01T19:01:37.832Z,1.30
2024-03-01T19:04:05.424Z,1.75
2024-03-01T19:06:32.788Z,1.27
2024-03-01T19:09:00.404Z,1.33
2024-03-01T19:11:27.766Z,1.20
2024-03-01T19:14:18.079Z,1.00
2024-03-01T19:16:45.532Z,0.88
2024-03-01T19:19:13.515Z,1.33
2024-03-01T19:21:45.719Z,0.82
2024-03-01T19:24:13.081Z,1.20
2024-03-01T19:26:45.738Z,1.20
2024-03-01T19:29:17.732Z,1.27
2024-03-01T19:31:44.985Z,1.00
2024-03-01T19:34:12.480Z,1.20
2024-03-01T19:36:40.558Z,1.35
2024-03-01T19:39:11.652Z,0.85
2024-03-01T19:41:39.011Z,1.00
2024-03-01T19:44:07.444Z,1.00
2024-03-01T19:46:34.895Z,2.03
2024-03-01T19:49:02.202Z,1.15
2024-03-01T19:51:33.547Z,1.00
2024-03-01T19:54:03.839Z,1.10
2024-03-01T19:56:31.866Z,1.05
2024-03-01T19:58:59.283Z,1.40
2024-03-01T20:01:26.878Z,1.40
2024-03-01T20:03:55.429Z,0.85
2024-03-01T20:06:27.706Z,0.57
2024-03-01T20:09:15.980Z,0.60
2024-03-01T20:11:45.789Z,0.40
2024-03-01T20:14:13.015Z,1.08
2024-03-01T20:16:43.510Z,0.80
2024-03-01T20:19:13.791Z,0.52
2024-03-01T20:21:41.519Z,0.63
2024-03-01T20:24:08.785Z,1.23
2024-03-01T20:26:36.166Z,0.90
2024-03-01T20:29:04.162Z,0.68
2024-03-01T20:31:34.776Z,0.60
2024-03-01T20:34:02.275Z,0.52
2024-03-01T20:36:35.436Z,0.47
2024-03-01T20:39:32.594Z,0.40
2024-03-01T20:42:02.908Z,0.47
2024-03-01T20:44:30.386Z,0.50
2024-03-01T20:47:11.621Z,0.50
2024-03-01T20:49:40.009Z,0.70
2024-03-01T20:52:07.696Z,0.98
2024-03-01T20:54:35.520Z,0.77
2024-03-01T20:57:03.493Z,0.47
2024-03-01T20:59:30.724Z,0.70
2024-03-01T21:01:58.414Z,1.30
2024-03-01T21:04:31.395Z,0.57
2024-03-01T21:07:00.254Z,0.90
2024-03-01T21:09:27.447Z,0.55
2024-03-01T21:11:54.663Z,0.63
2024-03-01T21:14:24.282Z,0.57
2024-03-01T21:16:51.667Z,1.10
2024-03-01T21:19:19.215Z,0.88
2024-03-01T21:24:16.581Z,0.68
2024-03-01T21:26:44.136Z,0.47
2024-03-01T21:29:11.395Z,0.82
2024-03-01T21:31:38.535Z,0.70
2024-03-01T21:34:05.759Z,0.60
2024-03-01T21:36:32.994Z,0.70
2024-03-01T21:39:00.288Z,0.63
2024-03-01T21:41:28.606Z,0.60
2024-03-01T21:43:56.405Z,0.63
2024-03-01T21:46:23.619Z,0.80
2024-03-01T21:48:51.255Z,0.90
2024-03-01T21:51:21.421Z,0.52
2024-03-01T21:53:51.801Z,0.82
2024-03-01T21:56:20.474Z,0.70
2024-03-01T21:58:48.114Z,0.93
2024-03-01T22:01:15.449Z,0.93
2024-03-01T22:03:42.882Z,0.98
2024-03-01T22:06:11.185Z,1.00
2024-03-01T22:08:38.565Z,0.93
2024-03-01T22:11:06.134Z,1.10
2024-03-01T22:13:37.514Z,0.70
2024-03-01T22:16:05.152Z,1.58
2024-03-01T22:18:37.306Z,1.05
2024-03-01T22:23:34.982Z,0.90
2024-03-01T22:26:06.258Z,0.55
2024-03-01T22:28:33.645Z,0.60
2024-03-01T22:31:02.859Z,0.50
2024-03-01T22:33:32.242Z,0.55
2024-03-01T22:36:02.174Z,0.85
2024-03-01T22:38:30.566Z,0.47
2024-03-01T22:41:06.364Z,0.65
2024-03-01T22:43:37.302Z,0.50
2024-03-01T22:46:09.523Z,0.65
2024-03-01T22:48:37.055Z,0.65
2024-03-01T22:51:13.464Z,0.40
2024-03-01T22:53:44.447Z,0.68
2024-03-01T22:56:20.286Z,0.50
2024-03-01T22:58:51.972Z,0.60
2024-03-01T23:01:27.210Z,0.70
2024-03-01T23:03:58.642Z,0.50
2024-03-01T23:06:27.649Z,0.70
2024-03-01T23:08:57.294Z,0.30
2024-03-01T23:11:25.639Z,0.63
2024-03-01T23:13:53.706Z,0.40
2024-03-01T23:16:20.991Z,0.55
2024-03-01T23:18:48.812Z,0.50
2024-03-01T23:21:16.113Z,0.40
2024-03-01T23:23:49.775Z,0.50
2024-03-01T23:26:18.298Z,0.60
2024-03-01T23:28:45.648Z,0.40
2024-03-01T23:31:12.974Z,0.50
2024-03-01T23:33:40.325Z,0.50
2024-03-01T23:36:07.828Z,0.63
2024-03-01T23:38:34.998Z,0.60
2024-03-01T23:41:02.514Z,0.85
2024-03-01T23:43:29.668Z,0.60
2024-03-01T23:45:56.979Z,0.30
2024-03-01T23:48:26.058Z,0.60
2024-03-01T23:50:54.635Z,0.65
2024-03-01T23:53:22.996Z,0.30
2024-03-01T23:55:56.103Z,0.60
2024-03-01T23:58:26.559Z,0.70
